CheckWX is a tool to help pilots better visualize weather data.  It is not intended as a substitute for an official pre-flight weather briefing.

06:46:11 UTC

KMLT METAR
Millinocket Municipal Airport
Millinocket, Maine, USA
Current

9 mins ago

KMLT 210637Z AUTO 00000KT 1/2SM FG BKN002 OVC050 13/13 A2956 RMK AO2 T01330128 PNO
Observed
May-21 @ 06:37 UTC
Visibility
1/2 SM
Flight Rules
LIFR
Conditions
Fog
Cloud Levels
  • Broken at 200' AGL
  • Overcast at 5,000' AGL
Temperature
13°C / 55°F
Dewpoint
13°C / 55°F
Humidity
100%
Altimeter
29.56" Hg
Pressure
1001.02 hPa
Previous

53 mins ago

KMLT 210553Z AUTO 00000KT 1/4SM FG VV002 14/13 A2957 RMK AO2 SLP018 6//// T01390133 10156 20139 58015 PNO
Observed
May-21 @ 05:53 UTC
Visibility
1/4 SM
Flight Rules
LIFR
Conditions
Fog
Cloud Levels
  • Vertical visibility at 200' AGL
Temperature
14°C / 57°F
Dewpoint
13°C / 55°F
Humidity
94%
Altimeter
29.57" Hg
Pressure
1001.32 hPa
Previous

1 hour ago

KMLT 210518Z AUTO 00000KT 1/4SM FG VV002 14/13 A2959 RMK AO2 T01440133 PNO
Observed
May-21 @ 05:18 UTC
Visibility
1/4 SM
Flight Rules
LIFR
Conditions
Fog
Cloud Levels
  • Vertical visibility at 200' AGL
Temperature
14°C / 57°F
Dewpoint
13°C / 55°F
Humidity
94%
Altimeter
29.59" Hg
Pressure
1002.02 hPa